Time;durP1;ratioP1;P1;durP2;ratioP2;P2;SDS_P1;SDS_P2;PMS_P1;PMS_P2;Temp;Humidity;BMP_temperature;BMP_pressure;BME280_temperature;BME280_humidity;BME280_pressure;Samples;Min_cycle;Max_cycle;Signal;HPM_P1;HPM_P2
2022/10/24 00:01:21;;;;;;;26.63;3.40;;;14.20;99.90;;;;;;5035357;28;20452;-72
2022/10/24 00:03:49;;;;;;;26.42;2.85;;;14.20;99.90;;;;;;5034854;28;20279;-71
2022/10/24 00:06:18;;;;;;;26.27;2.90;;;14.10;99.90;;;;;;5017767;28;20056;-71
2022/10/24 00:08:46;;;;;;;26.25;2.80;;;14.00;99.90;;;;;;5033668;28;20041;-71
2022/10/24 00:11:18;;;;;;;;;;;13.90;99.90;;;;;;5018239;28;20041;-71
2022/10/24 00:13:46;;;;;;;23.40;3.05;;;13.80;99.90;;;;;;5034352;28;19925;-71
2022/10/24 00:16:13;;;;;;;28.92;3.20;;;13.70;99.90;;;;;;5016726;28;20472;-71
2022/10/24 00:18:41;;;;;;;32.78;3.88;;;13.90;99.90;;;;;;5046465;28;20468;-71
2022/10/24 00:21:09;;;;;;;27.38;3.45;;;13.80;99.90;;;;;;5053638;28;20044;-72
2022/10/24 00:23:36;;;;;;;36.90;4.20;;;13.80;99.90;;;;;;5053656;28;20041;-71
2022/10/24 00:26:04;;;;;;;41.28;4.95;;;13.80;99.90;;;;;;5055219;28;20041;-71
2022/10/24 00:28:34;;;;;;;35.60;4.22;;;13.80;99.90;;;;;;5053610;28;20045;-71
2022/10/24 00:31:04;;;;;;;33.10;4.47;;;13.90;99.90;;;;;;5054415;28;20052;-71
2022/10/24 00:33:31;;;;;;;29.60;4.03;;;13.90;99.90;;;;;;5054676;28;20041;-71
2022/10/24 00:35:59;;;;;;;29.45;3.72;;;13.90;99.90;;;;;;5053461;28;20049;-72
2022/10/24 00:38:26;;;;;;;33.08;3.95;;;13.90;99.90;;;;;;5054404;28;20064;-72
2022/10/24 00:40:54;;;;;;;29.42;4.05;;;13.80;99.90;;;;;;5054323;28;20045;-71
2022/10/24 00:43:24;;;;;;;33.72;4.07;;;13.80;99.90;;;;;;5052368;28;20052;-71
2022/10/24 00:45:58;;;;;;;40.03;4.50;;;13.80;99.90;;;;;;5053960;28;20052;-71
2022/10/24 00:48:42;;;;;;;36.13;4.22;;;13.80;99.90;;;;;;5052999;28;20045;-71
2022/10/24 00:51:26;;;;;;;30.67;3.50;;;13.80;99.90;;;;;;5053483;28;20049;-71
2022/10/24 00:54:01;;;;;;;22.80;3.30;;;13.80;99.90;;;;;;5054305;28;20056;-71
2022/10/24 00:56:33;;;;;;;26.55;3.17;;;13.80;99.90;;;;;;5052694;28;20064;-71
2022/10/24 00:59:03;;;;;;;24.95;3.08;;;13.80;99.90;;;;;;5054135;28;20045;-71
2022/10/24 01:01:32;;;;;;;24.15;3.05;;;13.80;99.90;;;;;;5052869;28;20075;-72
2022/10/24 01:04:00;;;;;;;27.48;3.67;;;13.80;99.90;;;;;;5054125;28;20048;-72
2022/10/24 01:06:59;;;;;;;32.83;3.80;;;13.80;99.90;;;;;;5054332;28;20582;-71
2022/10/24 01:09:57;;;;;;;30.45;3.90;;;13.80;99.90;;;;;;5053028;28;20045;-71
2022/10/24 01:13:05;;;;;;;31.83;4.50;;;13.90;99.90;;;;;;5053612;28;20041;-71
2022/10/24 01:15:52;;;;;;;33.80;4.03;;;13.90;99.90;;;;;;5039846;28;20360;-71
2022/10/24 01:18:31;;;;;;;33.40;4.78;;;14.00;99.90;;;;;;5040812;28;20052;-71
2022/10/24 01:21:23;;;;;;;36.97;4.72;;;14.00;99.90;;;;;;5033992;28;20046;-71
2022/10/24 01:24:05;;;;;;;47.50;4.80;;;14.00;99.90;;;;;;5034166;28;20046;-71
2022/10/24 01:26:51;;;;;;;39.55;5.03;;;14.00;99.90;;;;;;5038006;28;20045;-71
2022/10/24 01:29:44;;;;;;;41.20;5.03;;;14.00;99.90;;;;;;5037033;28;20048;-71
2022/10/24 01:32:28;;;;;;;35.88;4.03;;;14.00;99.90;;;;;;5037623;28;20057;-71
2022/10/24 01:35:06;;;;;;;25.50;3.67;;;14.00;99.90;;;;;;5036475;28;20049;-71
2022/10/24 01:37:58;;;;;;;29.05;3.40;;;14.00;99.90;;;;;;5037848;28;20045;-72
2022/10/24 01:40:34;;;;;;;22.80;3.30;;;14.00;99.90;;;;;;5037822;28;20461;-71
2022/10/24 01:43:09;;;;;;;30.83;3.70;;;14.00;99.90;;;;;;5036424;28;20464;-71
2022/10/24 01:45:41;;;;;;;28.05;3.20;;;14.00;99.90;;;;;;5037501;28;20037;-71
2022/10/24 01:48:12;;;;;;;31.45;3.10;;;14.00;99.90;;;;;;5036342;28;20042;-71
2022/10/24 01:50:44;;;;;;;17.92;2.58;;;14.00;99.90;;;;;;5037451;28;20056;-72
2022/10/24 01:53:13;;;;;;;18.98;2.65;;;14.00;99.90;;;;;;5037441;28;20056;-71
2022/10/24 01:55:42;;;;;;;23.80;2.97;;;13.90;99.90;;;;;;5036183;28;20056;-71
2022/10/24 01:58:09;;;;;;;25.60;3.28;;;13.80;99.90;;;;;;5020062;28;20395;-71
2022/10/24 02:00:37;;;;;;;22.63;2.73;;;13.90;99.90;;;;;;5037139;28;20057;-71
2022/10/24 02:03:37;;;;;;;24.15;3.30;;;13.90;99.90;;;;;;5036282;28;20294;-71
2022/10/24 02:06:10;;;;;;;19.85;2.47;;;14.00;99.90;;;;;;5020728;28;20376;-71
2022/10/24 02:08:46;;;;;;;26.00;2.70;;;13.90;99.90;;;;;;5036047;28;20061;-71
2022/10/24 02:11:14;;;;;;;17.35;2.20;;;14.00;99.90;;;;;;5037243;28;20076;-71
2022/10/24 02:13:56;;;;;;;20.75;2.60;;;13.90;99.90;;;;;;5037477;28;20053;-71
2022/10/24 02:16:24;;;;;;;17.70;2.47;;;14.00;99.90;;;;;;5035784;28;20064;-71
2022/10/24 02:18:55;;;;;;;25.95;2.33;;;14.00;99.90;;;;;;5036689;28;20056;-71
2022/10/24 02:21:37;;;;;;;19.05;1.92;;;13.90;99.90;;;;;;5035877;28;20049;-71
2022/10/24 02:24:15;;;;;;;13.90;1.83;;;14.00;99.90;;;;;;5037101;28;20486;-71
2022/10/24 02:26:57;;;;;;;10.00;1.50;;;13.90;99.90;;;;;;5019305;28;20115;-71
2022/10/24 02:29:38;;;;;;;10.52;1.30;;;14.00;99.90;;;;;;5035612;28;20045;-71
2022/10/24 02:32:10;;;;;;;15.10;1.73;;;14.00;99.90;;;;;;5036520;28;20060;-71
2022/10/24 02:34:40;;;;;;;11.52;1.10;;;13.90;99.90;;;;;;5019303;28;20049;-72
2022/10/24 02:37:10;;;;;;;8.35;1.00;;;13.90;99.90;;;;;;5035964;28;20060;-72
2022/10/24 02:39:41;;;;;;;7.90;0.85;;;13.90;99.90;;;;;;5036970;28;20050;-72
2022/10/24 02:42:11;;;;;;;4.35;0.68;;;13.90;99.90;;;;;;5035255;28;20045;-71
2022/10/24 02:44:41;;;;;;;6.32;0.82;;;13.90;99.90;;;;;;5036357;28;20057;-71
2022/10/24 02:47:11;;;;;;;27.05;1.80;;;13.80;99.90;;;;;;5036263;28;20041;-71
2022/10/24 02:49:39;;;;;;;10.13;0.82;;;13.70;99.90;;;;;;5035116;28;20063;-71
2022/10/24 02:52:07;;;;;;;7.25;1.27;;;13.70;99.90;;;;;;5036235;28;20046;-71
2022/10/24 02:54:35;;;;;;;6.75;1.10;;;13.80;99.90;;;;;;5035219;28;20060;-71
2022/10/24 02:57:02;;;;;;;5.82;0.80;;;13.60;99.90;;;;;;5034968;28;20045;-71
2022/10/24 02:59:30;;;;;;;8.48;1.10;;;13.70;99.90;;;;;;5036319;28;20052;-71
2022/10/24 03:01:58;;;;;;;5.45;0.80;;;13.70;99.90;;;;;;5034833;28;20045;-71
2022/10/24 03:04:25;;;;;;;7.05;1.20;;;13.60;99.90;;;;;;5035953;28;20045;-71
2022/10/24 03:06:53;;;;;;;8.00;1.20;;;13.60;99.90;;;;;;5018433;28;20056;-71
2022/10/24 03:09:20;;;;;;;8.48;1.25;;;13.60;99.90;;;;;;5034875;28;20041;-71
2022/10/24 03:11:48;;;;;;;9.50;1.20;;;13.60;99.90;;;;;;5035962;28;20056;-71
2022/10/24 03:14:15;;;;;;;9.05;1.20;;;13.60;99.90;;;;;;5035714;28;20290;-72
2022/10/24 03:16:43;;;;;;;6.25;1.42;;;13.60;99.90;;;;;;5034420;28;20049;-71
2022/10/24 03:19:10;;;;;;;9.32;1.30;;;13.60;99.90;;;;;;5035650;28;20061;-71
2022/10/24 03:21:39;;;;;;;6.20;1.20;;;13.60;99.90;;;;;;5034637;28;20045;-71
2022/10/24 03:24:06;;;;;;;9.43;1.27;;;13.60;99.90;;;;;;5018506;28;20372;-71
2022/10/24 03:26:39;;;;;;;5.30;0.80;;;13.60;99.90;;;;;;5035739;28;20045;-71
2022/10/24 03:29:06;;;;;;;7.47;0.95;;;13.60;99.90;;;;;;5034331;28;20049;-71
2022/10/24 03:31:35;;;;;;;5.68;0.90;;;13.60;99.90;;;;;;5018495;28;20068;-71
2022/10/24 03:34:02;;;;;;;4.78;0.82;;;13.60;99.90;;;;;;5035419;28;20045;-72
2022/10/24 03:36:30;;;;;;;6.60;1.00;;;13.70;99.90;;;;;;5034274;28;20065;-71
2022/10/24 03:38:57;;;;;;;5.53;0.68;;;13.50;99.90;;;;;;5035655;28;20369;-71
2022/10/24 03:41:24;;;;;;;5.13;0.90;;;13.60;99.90;;;;;;5034289;28;20052;-71
2022/10/24 03:43:52;;;;;;;4.13;0.80;;;13.60;99.90;;;;;;5035310;28;20108;-72
2022/10/24 03:46:19;;;;;;;4.50;0.95;;;13.60;99.90;;;;;;5035636;28;20045;-71
2022/10/24 03:48:47;;;;;;;3.47;0.67;;;13.60;99.90;;;;;;5016126;28;20467;-71
2022/10/24 03:51:14;;;;;;;4.28;0.80;;;13.60;99.90;;;;;;5035767;28;20598;-71
2022/10/24 03:53:42;;;;;;;7.35;1.00;;;13.50;99.90;;;;;;5035092;28;20053;-72
2022/10/24 03:56:09;;;;;;;3.15;0.80;;;13.50;99.90;;;;;;5033895;28;20369;-71
2022/10/24 03:58:37;;;;;;;6.47;1.10;;;13.50;99.90;;;;;;5035489;28;20046;-72
2022/10/24 04:01:04;;;;;;;7.97;0.90;;;13.50;99.90;;;;;;5034922;28;20045;-72
2022/10/24 04:03:32;;;;;;;12.70;1.52;;;13.50;99.90;;;;;;5033782;28;20053;-71
2022/10/24 04:05:59;;;;;;;11.25;1.10;;;13.50;99.90;;;;;;5035135;28;20060;-72
2022/10/24 04:08:27;;;;;;;5.85;1.23;;;13.50;99.90;;;;;;5033711;28;20495;-72
2022/10/24 04:10:54;;;;;;;5.83;1.10;;;13.40;99.90;;;;;;5034913;28;20394;-71
2022/10/24 04:13:21;;;;;;;9.27;1.47;;;13.40;99.90;;;;;;5034761;28;20279;-71
2022/10/24 04:15:49;;;;;;;12.25;1.50;;;13.40;99.90;;;;;;5034125;28;20041;-71
2022/10/24 04:18:16;;;;;;;9.52;1.35;;;13.40;99.90;;;;;;5034675;28;20053;-71
2022/10/24 04:20:44;;;;;;;9.75;1.45;;;13.40;99.90;;;;;;5034574;28;20384;-71
2022/10/24 04:23:11;;;;;;;7.78;1.70;;;13.30;99.90;;;;;;5033493;28;20038;-71
2022/10/24 04:25:39;;;;;;;11.60;1.60;;;13.20;99.90;;;;;;5034660;28;20045;-71
2022/10/24 04:28:07;;;;;;;10.02;1.92;;;13.10;99.90;;;;;;5033586;28;20038;-71
2022/10/24 04:30:34;;;;;;;10.13;1.80;;;13.20;99.90;;;;;;5017415;28;20037;-71
2022/10/24 04:33:02;;;;;;;6.07;1.58;;;13.00;99.90;;;;;;5034925;28;20065;-71
2022/10/24 04:35:29;;;;;;;12.20;1.88;;;12.90;99.90;;;;;;5033586;28;20045;-71
2022/10/24 04:37:57;;;;;;;6.88;1.52;;;13.00;99.90;;;;;;5034962;28;20046;-71
2022/10/24 04:40:24;;;;;;;4.97;1.50;;;13.00;99.90;;;;;;5034703;28;20052;-71
2022/10/24 04:42:52;;;;;;;8.07;1.75;;;13.00;99.90;;;;;;5033679;28;20060;-71
2022/10/24 04:45:19;;;;;;;8.98;1.50;;;13.00;99.90;;;;;;5034735;28;20469;-71
2022/10/24 04:47:47;;;;;;;9.73;1.30;;;13.00;99.90;;;;;;5034408;28;20052;-71
2022/10/24 04:50:14;;;;;;;7.93;1.23;;;13.00;99.90;;;;;;5033282;28;20064;-71
2022/10/24 04:52:42;;;;;;;10.82;1.20;;;13.00;99.90;;;;;;5034358;28;20052;-71
2022/10/24 04:55:09;;;;;;;7.23;1.33;;;13.00;99.90;;;;;;5033322;28;20053;-71
2022/10/24 04:57:37;;;;;;;9.73;1.50;;;13.00;99.90;;;;;;5034596;28;20622;-71
2022/10/24 05:00:05;;;;;;;8.57;1.45;;;13.00;99.90;;;;;;5036201;28;20053;-71
2022/10/24 05:02:32;;;;;;;;;;;12.90;99.90;;;;;;5037515;28;20048;-71
2022/10/24 05:04:59;;;;;;;8.35;1.27;;;12.90;99.90;;;;;;5038377;28;19932;-71
2022/10/24 05:07:27;;;;;;;8.20;1.27;;;12.80;99.90;;;;;;5004542;28;20053;-71
2022/10/24 05:09:54;;;;;;;5.40;1.17;;;12.70;99.90;;;;;;5037116;28;20049;-71
2022/10/24 05:12:22;;;;;;;9.32;1.40;;;12.60;99.90;;;;;;5020779;28;20064;-71
2022/10/24 05:14:49;;;;;;;6.05;1.20;;;12.60;99.90;;;;;;5037075;28;20049;-71
2022/10/24 05:17:17;;;;;;;6.43;1.30;;;12.50;99.90;;;;;;5037701;28;20056;-71
2022/10/24 05:19:44;;;;;;;8.18;1.52;;;12.50;99.90;;;;;;5038612;28;20053;-71
2022/10/24 05:22:11;;;;;;;4.50;1.20;;;12.50;99.90;;;;;;5036763;28;20061;-71
2022/10/24 05:24:39;;;;;;;7.35;1.35;;;12.60;99.90;;;;;;5038124;28;20049;-71
2022/10/24 05:27:07;;;;;;;8.85;1.20;;;12.60;99.90;;;;;;5037736;28;20048;-71
2022/10/24 05:29:34;;;;;;;4.40;1.10;;;12.70;99.90;;;;;;5036686;28;20045;-71
2022/10/24 05:32:03;;;;;;;7.93;0.95;;;12.70;99.90;;;;;;5037671;28;20049;-71
2022/10/24 05:34:31;;;;;;;6.45;1.10;;;12.70;99.90;;;;;;5038110;28;20045;-71
2022/10/24 05:36:58;;;;;;;6.37;1.00;;;12.80;99.90;;;;;;5036655;28;20049;-71
2022/10/24 05:39:26;;;;;;;6.70;1.10;;;12.80;99.90;;;;;;5037574;28;20664;-71
2022/10/24 05:41:53;;;;;;;5.25;0.80;;;12.80;99.90;;;;;;5036362;28;20775;-71
2022/10/24 05:44:21;;;;;;;;;;;12.80;99.90;;;;;;5004109;28;20045;-71
2022/10/24 05:46:49;;;;;;;10.50;1.20;;;12.90;99.90;;;;;;5037437;28;19924;-73
2022/10/24 05:49:16;;;;;;;5.50;0.98;;;12.90;99.90;;;;;;5018968;28;20045;-71
2022/10/24 05:51:44;;;;;;;2.90;0.90;;;12.90;99.90;;;;;;5020579;28;20076;-71
2022/10/24 05:54:11;;;;;;;10.30;1.20;;;12.90;99.90;;;;;;5027073;28;20284;-71
2022/10/24 05:56:44;;;;;;;4.63;0.80;;;12.90;99.90;;;;;;5017276;28;20564;-71
2022/10/24 05:59:11;;;;;;;4.50;0.73;;;12.80;99.90;;;;;;5017351;28;20061;-71
2022/10/24 06:01:39;;;;;;;6.93;1.00;;;12.80;99.90;;;;;;5016232;28;20359;-71
2022/10/24 06:04:07;;;;;;;3.33;0.75;;;12.70;99.90;;;;;;5017725;28;20372;-71
2022/10/24 06:06:42;;;;;;;4.82;0.80;;;12.60;99.90;;;;;;5017284;28;20049;-71
2022/10/24 06:09:10;;;;;;;6.57;0.98;;;12.50;99.90;;;;;;5016303;28;20045;-71
2022/10/24 06:11:38;;;;;;;4.10;0.77;;;12.30;99.90;;;;;;5016319;28;20053;-71
2022/10/24 06:14:05;;;;;;;7.03;1.10;;;12.30;99.90;;;;;;5017097;28;20045;-71
2022/10/24 06:16:33;;;;;;;4.72;0.80;;;12.30;99.90;;;;;;4999057;28;20500;-71
2022/10/24 06:19:01;;;;;;;4.75;0.75;;;12.20;99.90;;;;;;5016825;28;20049;-71
2022/10/24 06:21:28;;;;;;;5.65;1.00;;;12.10;99.90;;;;;;5016064;28;20046;-71
2022/10/24 06:23:56;;;;;;;6.07;0.68;;;12.00;99.90;;;;;;5016831;28;20057;-71
2022/10/24 06:26:24;;;;;;;6.15;1.00;;;11.90;99.90;;;;;;5016889;28;20042;-71
2022/10/24 06:28:53;;;;;;;6.60;0.90;;;11.80;99.90;;;;;;5015797;28;20046;-71
2022/10/24 06:31:21;;;;;;;5.57;0.85;;;11.80;99.90;;;;;;5016751;28;20048;-71
2022/10/24 06:33:49;;;;;;;10.77;0.98;;;11.70;99.90;;;;;;5016748;28;20050;-71
2022/10/24 06:36:16;;;;;;;9.73;0.82;;;11.70;99.90;;;;;;5015760;28;20050;-71
2022/10/24 06:38:44;;;;;;;7.97;1.00;;;11.60;99.90;;;;;;5016747;28;20050;-71
2022/10/24 06:41:13;;;;;;;6.45;1.27;;;11.60;99.90;;;;;;5016624;28;20053;-71
2022/10/24 06:43:42;;;;;;;6.78;1.10;;;11.60;99.90;;;;;;5015353;28;20050;-71
2022/10/24 06:46:11;;;;;;;6.85;1.10;;;11.60;99.90;;;;;;5016913;28;20453;-71
2022/10/24 06:48:39;;;;;;;9.38;0.90;;;11.50;99.90;;;;;;5015512;28;20061;-71
2022/10/24 06:51:08;;;;;;;8.20;1.08;;;11.50;99.90;;;;;;5016568;28;20473;-71
2022/10/24 06:53:35;;;;;;;7.72;0.82;;;11.50;99.90;;;;;;5016353;28;20465;-71
2022/10/24 06:56:05;;;;;;;9.82;1.17;;;11.50;99.90;;;;;;5015128;28;20046;-72
2022/10/24 06:58:34;;;;;;;9.10;1.00;;;11.50;99.90;;;;;;5016018;28;20053;-71
2022/10/24 07:01:10;;;;;;;8.30;1.10;;;11.50;99.90;;;;;;5015955;28;20049;-71
2022/10/24 07:03:38;;;;;;;6.70;1.02;;;11.40;99.90;;;;;;5027815;28;20042;-71
2022/10/24 07:06:08;;;;;;;8.18;1.08;;;11.50;99.90;;;;;;5018578;28;20045;-71
2022/10/24 07:08:35;;;;;;;7.18;1.10;;;11.50;99.90;;;;;;5034253;28;20048;-71
2022/10/24 07:11:03;;;;;;;6.25;1.23;;;12.00;99.90;;;;;;5035652;28;20041;-71
2022/10/24 07:13:30;;;;;;;6.03;1.20;;;11.50;99.90;;;;;;5035558;28;20045;-70
2022/10/24 07:15:58;;;;;;;4.53;0.85;;;11.50;99.90;;;;;;5034388;28;20056;-71
2022/10/24 07:18:25;;;;;;;10.23;1.00;;;11.50;99.90;;;;;;5035295;28;20053;-71
2022/10/24 07:20:53;;;;;;;9.15;1.10;;;11.50;99.90;;;;;;5018460;28;20061;-71
2022/10/24 07:23:20;;;;;;;4.88;0.90;;;11.50;99.90;;;;;;5016654;28;20396;-71
2022/10/24 07:25:48;;;;;;;7.65;0.93;;;11.60;99.90;;;;;;5035338;28;20045;-71
2022/10/24 07:28:15;;;;;;;5.63;1.00;;;11.60;99.90;;;;;;5034137;28;20048;-71
2022/10/24 07:30:43;;;;;;;6.33;1.00;;;11.60;99.90;;;;;;5035138;28;20041;-71
2022/10/24 07:33:11;;;;;;;10.00;1.58;;;11.60;99.90;;;;;;5035235;28;20041;-70
2022/10/24 07:35:42;;;;;;;9.32;1.30;;;11.70;99.90;;;;;;5016785;28;20068;-72
2022/10/24 07:38:09;;;;;;;11.07;1.02;;;11.60;99.90;;;;;;5032209;28;20057;-71
2022/10/24 07:40:39;;;;;;;7.25;1.08;;;11.70;99.90;;;;;;5035838;28;20049;-71
2022/10/24 07:43:07;;;;;;;8.18;1.10;;;11.70;99.90;;;;;;5034156;28;20045;-71
2022/10/24 07:45:36;;;;;;;9.90;1.20;;;11.70;99.90;;;;;;5018604;28;20049;-71
2022/10/24 07:48:05;;;;;;;6.43;1.05;;;11.70;99.90;;;;;;5034240;28;20053;-71
2022/10/24 07:50:39;;;;;;;8.63;1.20;;;11.70;99.90;;;;;;5018422;28;20052;-71
2022/10/24 07:53:07;;;;;;;7.05;1.00;;;11.80;99.90;;;;;;5035530;28;20057;-71
2022/10/24 07:55:38;;;;;;;11.93;1.70;;;11.80;99.90;;;;;;5016947;28;20053;-71
2022/10/24 07:58:06;;;;;;;7.50;1.00;;;11.80;99.90;;;;;;5035227;28;20049;-71
2022/10/24 08:00:34;;;;;;;12.23;1.40;;;11.90;99.90;;;;;;5034979;28;20064;-71
2022/10/24 08:03:02;;;;;;;;;;;11.90;99.90;;;;;;5034767;28;20065;-71
2022/10/24 08:05:30;;;;;;;9.70;1.05;;;12.00;99.90;;;;;;5035078;28;19925;-71
2022/10/24 08:07:57;;;;;;;8.57;1.30;;;12.00;99.90;;;;;;5035056;28;20056;-71
2022/10/24 08:10:45;;;;;;;7.93;1.30;;;12.00;99.90;;;;;;5015137;28;20042;-71
2022/10/24 08:13:12;;;;;;;11.77;1.33;;;12.00;99.90;;;;;;5030040;28;20056;-71
2022/10/24 08:15:40;;;;;;;10.80;1.42;;;12.10;99.90;;;;;;5034124;28;20053;-71
2022/10/24 08:18:07;;;;;;;10.13;1.60;;;12.10;99.90;;;;;;5034823;28;20476;-71
2022/10/24 08:20:35;;;;;;;12.40;1.33;;;12.10;99.90;;;;;;5034653;28;20049;-71
2022/10/24 08:23:02;;;;;;;12.02;1.70;;;12.20;99.90;;;;;;5033906;28;20056;-71
2022/10/24 08:25:29;;;;;;;11.13;1.65;;;12.20;99.90;;;;;;5035470;28;20049;-71
2022/10/24 08:27:57;;;;;;;10.47;1.43;;;12.30;99.90;;;;;;5034375;28;20045;-71
2022/10/24 08:30:24;;;;;;;8.35;1.48;;;12.30;99.90;;;;;;5016521;28;20056;-71
2022/10/24 08:32:52;;;;;;;7.90;1.70;;;12.30;99.90;;;;;;5035213;28;20049;-71
2022/10/24 08:35:20;;;;;;;12.02;1.83;;;12.40;99.90;;;;;;5038912;28;20049;-71
2022/10/24 08:37:48;;;;;;;12.60;2.00;;;12.40;99.90;;;;;;5041362;28;20046;-71
2022/10/24 08:40:18;;;;;;;7.85;2.08;;;12.40;99.90;;;;;;5041139;28;20042;-71
2022/10/24 08:42:47;;;;;;;11.20;2.38;;;12.50;99.90;;;;;;5022626;28;20049;-72
2022/10/24 08:45:29;;;;;;;19.05;3.42;;;12.50;99.90;;;;;;5041040;28;20384;-71
2022/10/24 08:48:13;;;;;;;14.60;3.15;;;12.60;99.90;;;;;;5040804;28;20048;-71
2022/10/24 08:50:43;;;;;;;19.63;2.72;;;12.70;99.90;;;;;;5041644;28;20042;-71
2022/10/24 08:53:18;;;;;;;20.20;2.10;;;12.70;99.90;;;;;;5040934;28;20053;-71
2022/10/24 08:55:50;;;;;;;10.38;2.60;;;12.70;99.90;;;;;;5040273;28;20061;-71
2022/10/24 08:58:33;;;;;;;20.02;3.40;;;12.80;99.90;;;;;;5041055;28;20045;-71
2022/10/24 09:01:15;;;;;;;17.55;4.32;;;12.90;99.90;;;;;;5040928;28;20384;-71
2022/10/24 09:03:47;;;;;;;19.30;5.07;;;12.90;99.90;;;;;;5039715;28;20045;-71
2022/10/24 09:06:29;;;;;;;19.23;5.70;;;13.00;99.90;;;;;;5040879;28;20125;-71
2022/10/24 09:09:19;;;;;;;19.77;5.18;;;13.00;99.90;;;;;;5039759;28;20057;-71
2022/10/24 09:12:13;;;;;;;13.98;4.95;;;13.10;99.90;;;;;;5040921;28;20056;-72
2022/10/24 09:14:43;;;;;;;19.35;5.15;;;13.10;99.90;;;;;;5040905;28;20045;-71
2022/10/24 09:17:18;;;;;;;15.60;3.75;;;13.20;99.90;;;;;;5041286;28;20045;-71
2022/10/24 09:20:16;;;;;;;13.75;3.35;;;13.20;99.90;;;;;;5041206;28;20060;-71
2022/10/24 09:22:44;;;;;;;21.25;3.53;;;13.30;99.90;;;;;;5039819;28;20045;-72
2022/10/24 09:25:16;;;;;;;16.05;2.88;;;13.40;99.90;;;;;;5040559;28;20052;-72
2022/10/24 09:27:43;;;;;;;14.68;3.35;;;13.40;99.90;;;;;;5040611;28;20045;-73
2022/10/24 09:30:24;;;;;;;11.40;3.22;;;13.40;99.90;;;;;;5039363;28;20033;-71
2022/10/24 09:33:14;;;;;;;11.98;3.15;;;13.50;99.90;;;;;;5040355;28;20472;-71
2022/10/24 09:35:42;;;;;;;14.85;2.60;;;13.50;99.90;;;;;;5039226;28;20046;-71
2022/10/24 09:38:37;;;;;;;11.05;2.67;;;13.60;99.90;;;;;;5023158;28;20038;-71
2022/10/24 09:41:21;;;;;;;8.93;2.03;;;13.60;99.90;;;;;;5037861;28;20060;-71
2022/10/24 09:43:57;;;;;;;8.43;1.75;;;13.70;99.90;;;;;;5022401;28;20050;-71
2022/10/24 09:46:44;;;;;;;9.70;2.20;;;13.80;99.90;;;;;;5038543;28;20041;-71
2022/10/24 09:49:12;;;;;;;13.02;1.80;;;13.90;99.90;;;;;;5036167;28;20049;-71
2022/10/24 09:51:41;;;;;;;;;;;13.90;99.90;;;;;;5037587;28;20384;-71
2022/10/24 09:54:18;;;;;;;9.23;1.30;;;13.90;99.90;;;;;;5037101;28;19928;-71
2022/10/24 09:56:47;;;;;;;15.35;1.70;;;14.00;99.90;;;;;;5035708;28;20053;-71
2022/10/24 10:00:08;;;;;;;10.43;1.45;;;14.00;99.90;;;;;;5037174;28;20068;-71
2022/10/24 10:02:36;;;;;;;15.73;2.08;;;14.00;99.90;;;;;;5019030;28;20049;-71
2022/10/24 10:05:03;;;;;;;;;;;14.00;99.90;;;;;;5037205;28;20376;-71
2022/10/24 10:07:34;;;;;;;11.00;1.58;;;14.00;99.90;;;;;;5036987;28;19923;-71
2022/10/24 10:10:20;;;;;;;10.98;1.85;;;14.00;99.90;;;;;;5035782;28;20052;-71
2022/10/24 10:13:11;;;;;;;12.60;1.73;;;14.10;99.90;;;;;;5036464;28;20046;-72
2022/10/24 10:15:48;;;;;;;9.88;2.00;;;14.10;99.90;;;;;;5030536;28;20037;-72
2022/10/24 10:18:23;;;;;;;11.07;1.80;;;14.20;99.90;;;;;;5054753;28;20052;-73
2022/10/24 10:21:13;;;;;;;13.00;1.58;;;14.20;99.90;;;;;;5051204;28;20049;-73
2022/10/24 10:23:44;;;;;;;7.57;1.40;;;14.20;99.90;;;;;;5055256;28;20044;-73
2022/10/24 10:26:13;;;;;;;13.52;1.50;;;14.20;99.90;;;;;;5055606;28;20044;-72
2022/10/24 10:29:03;;;;;;;9.02;1.88;;;14.20;99.90;;;;;;5054967;28;20353;-71
2022/10/24 10:31:38;;;;;;;10.32;2.05;;;14.20;99.90;;;;;;5044234;28;20049;-72
2022/10/24 10:34:26;;;;;;;11.70;2.00;;;14.20;99.90;;;;;;5041754;28;20068;-71
2022/10/24 10:36:53;;;;;;;;;;;14.20;99.90;;;;;;5035878;28;20372;-71
2022/10/24 10:39:47;;;;;;;8.88;2.28;;;14.20;99.90;;;;;;5036621;28;19932;-72
2022/10/24 10:42:44;;;;;;;13.48;2.40;;;14.30;99.90;;;;;;5035416;28;20380;-72
2022/10/24 10:45:11;;;;;;;15.60;2.45;;;14.40;99.90;;;;;;5036568;28;20045;-72
2022/10/24 10:47:47;;;;;;;6.97;1.90;;;14.40;99.90;;;;;;5036738;28;20364;-72
2022/10/24 10:50:41;;;;;;;12.80;2.35;;;14.40;99.90;;;;;;5035415;28;20049;-71
2022/10/24 10:53:36;;;;;;;9.82;1.70;;;14.40;99.90;;;;;;5036695;28;20045;-74
2022/10/24 10:56:22;;;;;;;11.73;1.70;;;14.40;99.90;;;;;;5035441;28;20456;-76
2022/10/24 10:59:14;;;;;;;12.52;1.55;;;14.30;99.90;;;;;;5035900;28;20049;-77
2022/10/24 11:02:00;;;;;;;10.30;1.70;;;14.30;99.90;;;;;;5035230;28;20224;-76
2022/10/24 11:04:46;;;;;;;11.32;1.92;;;14.30;99.90;;;;;;5035888;28;20057;-75
2022/10/24 11:07:32;;;;;;;9.82;1.83;;;14.40;99.90;;;;;;5035926;28;20049;-76
2022/10/24 11:10:08;;;;;;;9.88;1.80;;;14.40;99.90;;;;;;5044277;28;20513;-78
2022/10/24 11:12:41;;;;;;;9.07;1.70;;;14.40;99.90;;;;;;5038820;28;20045;-78
2022/10/24 11:15:19;;;;;;;12.18;2.10;;;14.50;99.90;;;;;;5054879;28;20063;-78
2022/10/24 11:17:57;;;;;;;11.05;1.73;;;14.50;99.90;;;;;;5055002;28;20057;-73
2022/10/24 11:21:04;;;;;;;9.15;1.55;;;14.60;99.90;;;;;;5038296;28;20056;-76
2022/10/24 11:23:43;;;;;;;7.07;1.35;;;14.70;99.90;;;;;;4958104;28;20069;-75
2022/10/24 11:26:21;;;;;;;6.25;1.30;;;14.70;99.90;;;;;;4975287;28;20055;-75
2022/10/24 11:33:13;;;;;;;12.52;2.00;;;15.00;99.90;;;;;;4963274;28;20050;-80
2022/10/24 11:36:00;;;;;;;12.68;1.85;;;15.80;99.90;;;;;;4995494;28;20511;-79
2022/10/24 11:38:30;;;;;;;15.00;1.90;;;15.30;99.90;;;;;;5013370;28;20469;-75
2022/10/24 11:41:20;;;;;;;15.20;1.80;;;15.40;99.90;;;;;;4996459;28;20049;-75
2022/10/24 11:43:53;;;;;;;12.27;1.40;;;15.60;99.90;;;;;;4993585;28;20065;-72
2022/10/24 11:46:25;;;;;;;10.07;1.67;;;15.70;99.90;;;;;;4993738;28;20050;-72
2022/10/24 11:49:10;;;;;;;9.43;1.40;;;16.00;99.90;;;;;;4992844;28;20057;-71
2022/10/24 11:51:45;;;;;;;9.23;1.67;;;16.10;99.90;;;;;;4993954;28;20054;-72
2022/10/24 11:54:24;;;;;;;10.05;1.60;;;16.30;99.90;;;;;;4993795;28;20381;-71
2022/10/24 11:57:10;;;;;;;10.38;1.80;;;16.50;99.90;;;;;;4992668;28;20058;-72
2022/10/24 11:59:37;;;;;;;6.88;1.50;;;16.70;99.90;;;;;;4994222;28;20053;-71
2022/10/24 12:02:25;;;;;;;10.90;1.70;;;16.80;99.90;;;;;;5033770;28;20052;-72
2022/10/24 12:04:52;;;;;;;12.18;2.00;;;16.80;99.90;;;;;;5034663;28;20354;-72
2022/10/24 12:07:37;;;;;;;15.17;2.10;;;16.90;99.90;;;;;;5033816;28;20376;-71
2022/10/24 12:10:23;;;;;;;8.30;1.90;;;16.90;99.90;;;;;;5032696;28;20057;-72
2022/10/24 12:12:53;;;;;;;13.55;2.70;;;16.90;99.90;;;;;;5034669;28;20045;-72
2022/10/24 12:15:30;;;;;;;13.40;2.20;;;16.90;99.90;;;;;;5033259;28;20057;-72
2022/10/24 12:18:34;;;;;;;14.45;1.90;;;16.90;99.90;;;;;;5024178;28;20413;-72
2022/10/24 12:21:06;;;;;;;10.73;1.80;;;16.90;99.90;;;;;;5009226;28;20054;-72
2022/10/24 12:23:34;;;;;;;15.50;2.10;;;16.80;99.90;;;;;;5013818;28;20385;-72
2022/10/24 12:26:07;;;;;;;13.90;2.38;;;16.80;99.90;;;;;;5014713;28;20457;-72
2022/10/24 12:28:37;;;;;;;12.77;2.00;;;16.80;99.90;;;;;;5013599;28;20045;-72
2022/10/24 12:31:09;;;;;;;14.90;2.28;;;16.80;99.90;;;;;;5015299;28;20053;-72
2022/10/24 12:33:36;;;;;;;13.00;2.25;;;16.80;99.90;;;;;;5014939;28;20050;-72
2022/10/24 12:36:04;;;;;;;13.25;2.67;;;16.80;99.90;;;;;;5014035;28;20049;-72
2022/10/24 12:38:31;;;;;;;19.23;2.75;;;16.70;99.90;;;;;;5014790;28;20045;-72
2022/10/24 12:41:08;;;;;;;15.87;3.17;;;16.70;99.90;;;;;;5014990;28;20057;-72
2022/10/24 12:43:44;;;;;;;15.00;2.78;;;16.70;99.90;;;;;;5013604;28;20603;-72
2022/10/24 12:46:14;;;;;;;15.65;2.40;;;16.70;99.90;;;;;;5014568;28;20057;-72
2022/10/24 12:48:58;;;;;;;14.73;2.47;;;16.80;99.90;;;;;;5013716;28;20042;-72
2022/10/24 12:51:35;;;;;;;18.35;2.53;;;17.00;99.90;;;;;;5014890;28;20053;-72
2022/10/24 12:54:11;;;;;;;12.00;2.33;;;17.20;99.90;;;;;;5015127;28;20053;-72
2022/10/24 12:56:48;;;;;;;16.17;2.53;;;17.40;99.90;;;;;;4996777;28;20342;-72
2022/10/24 12:59:24;;;;;;;15.40;2.42;;;17.60;99.90;;;;;;5014255;28;20053;-72
2022/10/24 13:02:11;;;;;;;12.88;2.70;;;17.60;99.90;;;;;;5013365;28;20042;-72
2022/10/24 13:05:01;;;;;;;19.75;2.70;;;17.70;99.90;;;;;;5014289;28;20050;-72
2022/10/24 13:08:11;;;;;;;18.73;3.03;;;17.50;99.90;;;;;;5014317;28;20061;-73
2022/10/24 13:11:04;;;;;;;20.95;3.38;;;17.80;99.90;;;;;;5014268;28;20407;-72
2022/10/24 13:14:10;;;;;;;16.50;2.97;;;17.80;99.90;;;;;;5014043;28;20503;-72
2022/10/24 13:17:13;;;;;;;21.92;3.30;;;17.70;99.90;;;;;;5013090;28;20061;-72
2022/10/24 13:19:41;;;;;;;20.67;3.33;;;17.60;99.90;;;;;;5014260;28;20520;-72